Time;durP1;ratioP1;P1;durP2;ratioP2;P2;SDS_P1;SDS_P2;PMS_P1;PMS_P2;Temp;Humidity;BMP_temperature;BMP_pressure;BME280_temperature;BME280_humidity;BME280_pressure;Samples;Min_cycle;Max_cycle;Signal;HPM_P1;HPM_P2
2024/01/18 00:03:02;;;;;;;47.33;20.63;;;;;;;;;;6086779;23;20206;-92
2024/01/18 00:06:15;;;;;;;47.20;20.40;;;;;;;;;;6089746;23;20158;-94
2024/01/18 00:09:24;;;;;;;46.83;19.53;;;;;;;;;;6036486;23;20306;-92
2024/01/18 00:12:35;;;;;;;47.07;20.03;;;;;;;;;;6052875;23;20239;-93
2024/01/18 00:15:22;;;;;;;48.70;21.17;;;;;;;;;;6089455;23;20196;-92
2024/01/18 00:18:34;;;;;;;46.47;19.90;;;;;;;;;;6088987;23;20200;-94
2024/01/18 00:21:47;;;;;;;42.83;18.90;;;;;;;;;;6106610;23;20180;-92
2024/01/18 00:24:52;;;;;;;42.57;19.30;;;;;;;;;;6107406;23;20516;-92
2024/01/18 00:28:00;;;;;;;49.57;21.17;;;;;;;;;;6081587;23;20284;-92
2024/01/18 00:31:07;;;;;;;69.00;24.70;;;;;;;;;;6085686;23;20155;-91
2024/01/18 00:34:17;;;;;;;55.43;23.40;;;;;;;;;;6063017;23;20275;-92
2024/01/18 00:37:25;;;;;;;58.43;23.27;;;;;;;;;;6062558;23;20170;-91
2024/01/18 00:43:27;;;;;;;62.07;23.70;;;;;;;;;;5974479;23;20791;-90
2024/01/18 00:46:35;;;;;;;50.67;22.17;;;;;;;;;;6060221;23;20159;-91
2024/01/18 00:53:03;;;;;;;43.77;19.47;;;;;;;;;;6068109;23;20229;-94
2024/01/18 00:56:11;;;;;;;43.90;20.20;;;;;;;;;;6088604;23;20187;-92
2024/01/18 00:59:16;;;;;;;47.10;20.37;;;;;;;;;;6090756;23;20622;-93
2024/01/18 01:02:25;;;;;;;50.13;21.30;;;;;;;;;;6091454;23;20174;-92
2024/01/18 01:05:31;;;;;;;46.13;21.23;;;;;;;;;;6074190;23;20176;-93
2024/01/18 01:08:37;;;;;;;46.73;20.60;;;;;;;;;;6091508;23;20214;-93
2024/01/18 01:11:45;;;;;;;50.03;20.77;;;;;;;;;;6088815;23;20303;-92
2024/01/18 01:14:50;;;;;;;51.53;20.40;;;;;;;;;;6087645;23;20171;-93
2024/01/18 01:17:59;;;;;;;49.77;20.93;;;;;;;;;;6089129;23;20172;-93
2024/01/18 01:27:45;;;;;;;52.93;22.23;;;;;;;;;;6087485;23;20247;-92
2024/01/18 01:30:50;;;;;;;49.47;21.97;;;;;;;;;;6087486;23;20204;-95
2024/01/18 01:33:57;;;;;;;51.90;22.50;;;;;;;;;;6089731;23;20171;-94
2024/01/18 01:37:05;;;;;;;50.63;21.67;;;;;;;;;;6089406;23;20220;-93
2024/01/18 01:40:10;;;;;;;56.43;23.13;;;;;;;;;;6089354;23;20174;-93
2024/01/18 01:43:17;;;;;;;51.87;22.77;;;;;;;;;;6089298;23;20153;-94
2024/01/18 01:46:24;;;;;;;54.53;23.33;;;;;;;;;;6089012;23;20208;-94
2024/01/18 01:49:41;;;;;;;52.27;22.50;;;;;;;;;;6089434;23;20220;-95
2024/01/18 01:52:47;;;;;;;55.70;23.87;;;;;;;;;;6087983;23;20190;-93
2024/01/18 01:55:52;;;;;;;54.37;22.73;;;;;;;;;;6092295;23;20266;-93
2024/01/18 01:58:59;;;;;;;49.10;21.17;;;;;;;;;;6091708;23;20171;-93
2024/01/18 02:02:06;;;;;;;50.70;23.70;;;;;;;;;;6091785;23;20174;-92
2024/01/18 02:05:15;;;;;;;51.20;22.17;;;;;;;;;;6089262;23;20221;-93
2024/01/18 02:08:21;;;;;;;53.70;23.07;;;;;;;;;;6091558;23;20239;-93
2024/01/18 02:11:28;;;;;;;48.60;22.57;;;;;;;;;;6091579;23;20180;-92
2024/01/18 02:14:33;;;;;;;49.33;21.40;;;;;;;;;;6091628;23;20312;-92
2024/01/18 02:24:05;;;;;;;50.27;22.57;;;;;;;;;;6032928;23;20219;-91
2024/01/18 02:27:24;;;;;;;54.20;22.53;;;;;;;;;;6089019;23;20627;-93
2024/01/18 02:33:25;;;;;;;47.03;21.93;;;;;;;;;;6084940;23;20199;-93
2024/01/18 02:36:34;;;;;;;57.50;23.37;;;;;;;;;;6086960;23;20222;-94
2024/01/18 02:39:42;;;;;;;57.33;23.13;;;;;;;;;;6087055;23;20178;-94
2024/01/18 02:42:52;;;;;;;55.80;23.27;;;;;;;;;;6086732;23;20223;-93
2024/01/18 02:45:57;;;;;;;55.90;23.47;;;;;;;;;;6085787;23;20174;-92
2024/01/18 02:52:03;;;;;;;59.53;23.50;;;;;;;;;;6080219;23;20211;-93
2024/01/18 02:55:22;;;;;;;56.90;23.20;;;;;;;;;;6072447;23;20219;-93
2024/01/18 02:58:31;;;;;;;55.10;23.70;;;;;;;;;;6059592;23;20201;-92
2024/01/18 03:01:35;;;;;;;62.70;24.27;;;;;;;;;;6087665;23;20203;-92
2024/01/18 03:04:41;;;;;;;56.43;23.60;;;;;;;;;;6088318;23;20173;-94
2024/01/18 03:07:47;;;;;;;55.50;24.77;;;;;;;;;;6088213;23;20174;-93
2024/01/18 03:10:56;;;;;;;51.53;23.23;;;;;;;;;;6089574;23;20150;-93
2024/01/18 03:14:04;;;;;;;55.87;23.37;;;;;;;;;;6089202;23;20608;-91
2024/01/18 03:17:10;;;;;;;51.27;23.70;;;;;;;;;;6088392;23;20163;-93
2024/01/18 03:20:23;;;;;;;53.97;22.60;;;;;;;;;;6076744;23;20214;-94
2024/01/18 03:23:29;;;;;;;56.23;23.20;;;;;;;;;;6088374;23;20625;-93
2024/01/18 03:26:35;;;;;;;56.07;22.93;;;;;;;;;;6073788;23;20201;-90
2024/01/18 03:29:43;;;;;;;55.70;24.17;;;;;;;;;;6088258;23;20181;-92
2024/01/18 03:32:48;;;;;;;54.70;23.77;;;;;;;;;;6087484;23;20182;-93
2024/01/18 03:35:53;;;;;;;53.23;23.83;;;;;;;;;;6089822;23;20155;-91
2024/01/18 03:38:59;;;;;;;56.03;24.23;;;;;;;;;;6087951;23;20188;-93
2024/01/18 03:42:05;;;;;;;53.13;23.10;;;;;;;;;;6088785;23;20170;-93
2024/01/18 03:45:13;;;;;;;55.47;23.90;;;;;;;;;;6088438;23;20181;-90
2024/01/18 03:48:19;;;;;;;60.73;24.00;;;;;;;;;;6087222;23;20194;-93
2024/01/18 03:51:25;;;;;;;55.17;23.67;;;;;;;;;;6086525;23;20167;-93
2024/01/18 03:57:29;;;;;;;55.03;23.03;;;;;;;;;;6085978;23;20199;-93
2024/01/18 04:03:48;;;;;;;63.67;25.57;;;;;;;;;;6073917;23;20163;-92
2024/01/18 04:06:53;;;;;;;53.87;23.80;;;;;;;;;;6057949;23;20200;-95
2024/01/18 04:09:59;;;;;;;53.50;23.77;;;;;;;;;;6058714;23;20188;-92
2024/01/18 04:16:34;;;;;;;51.63;22.67;;;;;;;;;;6057921;23;20195;-93
2024/01/18 04:19:41;;;;;;;56.03;23.83;;;;;;;;;;6059037;23;20175;-94
2024/01/18 04:22:46;;;;;;;57.07;23.90;;;;;;;;;;6057719;23;20167;-94
2024/01/18 04:25:52;;;;;;;60.57;24.27;;;;;;;;;;6058262;23;20156;-94
2024/01/18 04:28:58;;;;;;;57.50;23.93;;;;;;;;;;6058422;23;20182;-95
2024/01/18 04:32:03;;;;;;;55.77;23.50;;;;;;;;;;6059109;23;20232;-95
2024/01/18 04:35:11;;;;;;;54.50;23.23;;;;;;;;;;6059948;23;20186;-93
2024/01/18 04:38:18;;;;;;;53.87;23.87;;;;;;;;;;6043121;23;20640;-94
2024/01/18 04:41:23;;;;;;;56.90;23.90;;;;;;;;;;6060161;23;20159;-92
2024/01/18 04:44:29;;;;;;;58.53;25.13;;;;;;;;;;6059304;23;20166;-94
2024/01/18 04:47:34;;;;;;;55.97;24.13;;;;;;;;;;6058772;23;20221;-94
2024/01/18 04:50:41;;;;;;;61.07;25.87;;;;;;;;;;6057842;23;20174;-94
2024/01/18 04:53:47;;;;;;;54.97;24.90;;;;;;;;;;6060437;23;20172;-93
2024/01/18 04:56:53;;;;;;;59.10;25.97;;;;;;;;;;6060568;23;20167;-94
2024/01/18 05:00:00;;;;;;;63.83;25.03;;;;;;;;;;6061270;23;20158;-95
2024/01/18 05:03:07;;;;;;;60.37;25.30;;;;;;;;;;6059784;23;20187;-92
2024/01/18 05:06:14;;;;;;;64.97;26.13;;;;;;;;;;6057640;23;20218;-91
2024/01/18 05:09:20;;;;;;;56.63;24.80;;;;;;;;;;6056783;23;20182;-91
2024/01/18 05:12:25;;;;;;;55.03;24.27;;;;;;;;;;6057969;23;20228;-92
2024/01/18 05:15:31;;;;;;;59.30;25.27;;;;;;;;;;6059112;23;20162;-93
2024/01/18 05:18:36;;;;;;;55.67;25.50;;;;;;;;;;6058687;23;20171;-92
2024/01/18 05:21:43;;;;;;;60.87;24.30;;;;;;;;;;6057060;23;20227;-93
2024/01/18 05:24:50;;;;;;;56.20;24.17;;;;;;;;;;6059459;23;20151;-93
2024/01/18 05:27:56;;;;;;;59.37;25.10;;;;;;;;;;6058361;23;20172;-93
2024/01/18 05:31:02;;;;;;;55.13;24.60;;;;;;;;;;6062095;23;20171;-92
2024/01/18 05:34:08;;;;;;;56.23;23.60;;;;;;;;;;6058562;23;20228;-92
2024/01/18 05:37:15;;;;;;;60.10;25.43;;;;;;;;;;6058170;23;20628;-93
2024/01/18 05:40:22;;;;;;;57.37;25.67;;;;;;;;;;6061294;23;20159;-92
2024/01/18 05:43:32;;;;;;;56.43;23.23;;;;;;;;;;6056996;23;20160;-92
2024/01/18 05:46:37;;;;;;;62.47;25.87;;;;;;;;;;6059936;23;20196;-92
2024/01/18 05:49:43;;;;;;;55.37;23.97;;;;;;;;;;6060268;23;20198;-93
2024/01/18 05:52:51;;;;;;;70.77;28.70;;;;;;;;;;6057357;23;20175;-91
2024/01/18 05:55:59;;;;;;;63.57;26.33;;;;;;;;;;6056272;23;20216;-91
2024/01/18 05:59:04;;;;;;;66.00;25.47;;;;;;;;;;6057215;23;20158;-93
2024/01/18 06:02:10;;;;;;;63.57;26.33;;;;;;;;;;6061984;23;20239;-91
2024/01/18 06:05:15;;;;;;;65.67;25.40;;;;;;;;;;6058809;23;20640;-93
2024/01/18 06:08:25;;;;;;;55.70;24.30;;;;;;;;;;6061447;23;20175;-93
2024/01/18 06:11:31;;;;;;;69.73;26.13;;;;;;;;;;6058048;23;20151;-91
2024/01/18 06:14:38;;;;;;;62.83;25.97;;;;;;;;;;6058443;23;20155;-92
2024/01/18 06:17:46;;;;;;;60.33;24.03;;;;;;;;;;6059319;23;20236;-93
2024/01/18 06:20:54;;;;;;;57.70;25.40;;;;;;;;;;6061210;23;20170;-92
2024/01/18 06:24:10;;;;;;;60.53;26.73;;;;;;;;;;6059485;23;20218;-93
2024/01/18 23:02:24;;;;;;;16.57;5.53;;;;;;;;;;6081727;23;20198;-89
2024/01/18 23:05:33;;;;;;;10.27;5.13;;;;;;;;;;6080620;23;20171;-91
2024/01/18 23:08:39;;;;;;;11.83;5.10;;;;;;;;;;6081266;23;20166;-90
2024/01/18 23:11:44;;;;;;;12.13;4.83;;;;;;;;;;6080952;23;20167;-92
2024/01/18 23:14:49;;;;;;;13.33;5.73;;;;;;;;;;6079533;23;20238;-90
2024/01/18 23:17:56;;;;;;;14.40;5.27;;;;;;;;;;6080463;23;20174;-91
2024/01/18 23:21:03;;;;;;;13.67;5.97;;;;;;;;;;6087478;23;20691;-89
2024/01/18 23:24:09;;;;;;;16.93;5.80;;;;;;;;;;6080691;23;20186;-89
2024/01/18 23:27:16;;;;;;;12.87;4.93;;;;;;;;;;6081920;23;20507;-91
2024/01/18 23:30:22;;;;;;;17.33;5.83;;;;;;;;;;6080219;23;20236;-90
2024/01/18 23:33:29;;;;;;;13.33;4.90;;;;;;;;;;6082531;23;20174;-89
2024/01/18 23:36:34;;;;;;;12.80;4.80;;;;;;;;;;6081303;23;20496;-90
2024/01/18 23:39:39;;;;;;;12.97;5.43;;;;;;;;;;6083267;23;20162;-89
2024/01/18 23:42:44;;;;;;;14.70;5.23;;;;;;;;;;6082537;23;20239;-90
2024/01/18 23:45:49;;;;;;;14.30;5.40;;;;;;;;;;6081296;23;20170;-92
2024/01/18 23:48:58;;;;;;;15.03;4.37;;;;;;;;;;6082825;23;20171;-93
2024/01/18 23:52:04;;;;;;;10.97;4.00;;;;;;;;;;6081106;23;20179;-92
2024/01/18 23:55:09;;;;;;;8.73;4.13;;;;;;;;;;6079678;23;20194;-92
2024/01/18 23:58:15;;;;;;;5.97;3.30;;;;;;;;;;6082567;23;20174;-89
